Time;durP1;ratioP1;P1;durP2;ratioP2;P2;SDS_P1;SDS_P2;PMS_P1;PMS_P2;Temp;Humidity;BMP_temperature;BMP_pressure;BME280_temperature;BME280_humidity;BME280_pressure;Samples;Min_cycle;Max_cycle;Signal;HPM_P1;HPM_P2
2021/12/23 07:00:15;;;;;;;529.33;38.80;;;7.20;99.90;;;;;;6044027;23;19921;31
2021/12/23 07:02:45;;;;;;;498.10;36.70;;;7.30;99.90;;;;;;4876066;29;19996;-86
2021/12/23 07:05:13;;;;;;;643.22;41.08;;;7.30;99.90;;;;;;4874721;29;20049;-86
2021/12/23 07:07:53;;;;;;;643.15;42.30;;;7.30;99.90;;;;;;4874795;29;20057;-86
2021/12/23 07:10:24;;;;;;;598.67;40.65;;;7.30;99.90;;;;;;4876733;29;20818;-85
2021/12/23 07:12:53;;;;;;;451.50;32.30;;;7.30;99.90;;;;;;4876419;29;20122;-84
2021/12/23 07:15:20;;;;;;;521.55;32.92;;;7.30;99.90;;;;;;4878213;29;20053;-83
2021/12/23 07:17:47;;;;;;;548.50;39.78;;;7.30;99.90;;;;;;4876159;29;20425;-82
2021/12/23 07:20:14;;;;;;;613.28;40.65;;;7.30;99.90;;;;;;4875078;29;20109;-84
2021/12/23 07:22:41;;;;;;;661.03;37.33;;;7.40;99.90;;;;;;4879479;29;20051;-85
2021/12/23 07:25:09;;;;;;;774.03;44.35;;;7.40;99.90;;;;;;4862740;29;20056;-85
2021/12/23 07:27:36;;;;;;;731.30;43.33;;;7.40;99.90;;;;;;4878649;29;20097;-86
2021/12/23 07:30:04;;;;;;;641.47;40.53;;;7.50;99.90;;;;;;4878991;29;20189;-85
2021/12/23 07:32:31;;;;;;;659.83;41.00;;;7.50;99.90;;;;;;4863052;29;20499;-86
2021/12/23 07:34:58;;;;;;;858.65;51.20;;;7.50;99.90;;;;;;4871855;29;20727;-84
2021/12/23 07:37:25;;;;;;;844.58;45.78;;;7.60;99.90;;;;;;4877138;29;20177;-83
2021/12/23 07:40:17;;;;;;;891.10;49.38;;;7.60;99.90;;;;;;4863836;29;20124;-82
2021/12/23 07:42:54;;;;;;;1062.32;53.38;;;7.60;99.90;;;;;;4877482;29;20057;-83
2021/12/23 07:45:24;;;;;;;947.55;54.22;;;7.60;99.90;;;;;;4873624;29;20077;-84
2021/12/23 07:47:51;;;;;;;842.53;46.28;;;7.70;99.90;;;;;;4871462;29;20053;-84
2021/12/23 07:50:19;;;;;;;989.63;54.20;;;7.70;99.90;;;;;;4870269;29;20048;-84
2021/12/23 07:52:46;;;;;;;996.42;54.33;;;7.70;99.90;;;;;;4877847;29;20064;-84
2021/12/23 07:55:14;;;;;;;824.83;43.63;;;7.70;99.90;;;;;;4876100;29;20097;-84
2021/12/23 07:57:41;;;;;;;913.05;51.45;;;7.80;99.90;;;;;;4877945;29;20124;-84
2021/12/23 08:00:08;;;;;;;806.80;48.25;;;7.80;99.90;;;;;;4877532;29;20053;-83
2021/12/23 08:02:35;;;;;;;743.20;47.85;;;7.80;99.90;;;;;;4876870;29;20502;-81
2021/12/23 08:05:03;;;;;;;691.22;46.38;;;7.90;99.90;;;;;;4894994;29;20143;-84
2021/12/23 08:07:30;;;;;;;666.00;43.25;;;7.90;99.90;;;;;;4894602;29;20056;-84
2021/12/23 08:09:57;;;;;;;640.50;42.33;;;8.00;99.90;;;;;;4891955;29;20072;-84
2021/12/23 08:12:24;;;;;;;636.70;46.17;;;8.00;99.90;;;;;;4895481;29;20072;-83
2021/12/23 08:14:51;;;;;;;573.75;41.08;;;8.10;99.90;;;;;;4896078;29;20096;-84
2021/12/23 08:17:34;;;;;;;646.95;46.97;;;8.10;99.90;;;;;;4891391;29;20048;-83
2021/12/23 08:20:05;;;;;;;507.55;45.25;;;8.20;99.90;;;;;;4895736;29;20508;-85
2021/12/23 08:22:32;;;;;;;571.15;45.75;;;8.20;99.90;;;;;;4890955;29;20052;-84
2021/12/23 08:25:00;;;;;;;609.05;45.92;;;8.30;99.90;;;;;;4890110;29;20065;-84
2021/12/23 08:27:29;;;;;;;586.55;47.30;;;8.30;99.90;;;;;;4902985;29;20055;-83
2021/12/23 08:29:56;;;;;;;292.55;39.00;;;8.40;99.90;;;;;;4897460;29;20063;-84
2021/12/23 08:32:23;;;;;;;405.70;44.03;;;8.40;99.90;;;;;;4892064;29;20168;-84
2021/12/23 08:34:50;;;;;;;368.52;49.60;;;8.50;99.90;;;;;;4891636;29;20048;-84
2021/12/23 08:37:18;;;;;;;388.08;42.42;;;8.50;99.90;;;;;;4899192;29;20119;-84
2021/12/23 08:39:48;;;;;;;129.63;36.85;;;8.50;99.90;;;;;;4892420;29;20128;-84
2021/12/23 08:42:15;;;;;;;135.10;40.65;;;8.60;99.90;;;;;;4894106;29;20605;-85
2021/12/23 08:44:42;;;;;;;103.63;34.45;;;8.70;99.90;;;;;;4896361;29;20096;-84
2021/12/23 08:47:10;;;;;;;92.18;30.20;;;8.80;99.90;;;;;;4890510;29;20084;-86
2021/12/23 08:49:37;;;;;;;76.00;28.77;;;8.90;99.90;;;;;;4895075;29;20062;-84
2021/12/23 08:52:05;;;;;;;80.93;27.80;;;9.00;99.90;;;;;;4891133;29;20045;-83
2021/12/23 08:54:32;;;;;;;79.15;29.42;;;9.10;99.90;;;;;;4890873;29;20128;-83
2021/12/23 08:56:59;;;;;;;75.32;26.50;;;9.10;99.90;;;;;;4891030;29;20057;-82
2021/12/23 08:59:26;;;;;;;65.80;20.77;;;9.20;99.90;;;;;;4886267;29;20045;-81
2021/12/23 09:01:55;;;;;;;61.23;19.77;;;9.30;99.90;;;;;;4894077;29;20056;-82
2021/12/23 09:04:22;;;;;;;68.73;22.67;;;9.30;99.90;;;;;;4873667;29;20307;-84
2021/12/23 09:06:50;;;;;;;78.20;22.27;;;9.40;99.90;;;;;;4891312;29;20049;-82
2021/12/23 09:09:18;;;;;;;57.75;18.52;;;9.50;99.90;;;;;;4889868;29;20485;-82
2021/12/23 09:11:46;;;;;;;62.38;22.20;;;9.50;99.90;;;;;;4892437;29;20514;-84
2021/12/23 09:14:13;;;;;;;67.28;22.83;;;9.60;99.90;;;;;;4882927;29;20053;-83
2021/12/23 09:16:40;;;;;;;100.25;45.40;;;9.70;99.90;;;;;;4872763;29;20053;-83
2021/12/23 09:19:09;;;;;;;73.07;32.15;;;9.70;99.90;;;;;;4872182;29;20080;-82
2021/12/23 09:21:37;;;;;;;55.13;20.13;;;9.80;99.90;;;;;;4886911;29;20056;-82
2021/12/23 09:24:04;;;;;;;46.85;15.18;;;9.80;99.90;;;;;;4873692;29;20052;-82
2021/12/23 09:26:35;;;;;;;46.47;12.13;;;9.90;99.90;;;;;;4890499;29;20111;-83
2021/12/23 09:34:47;;;;;;;51.47;14.10;;;10.00;99.90;;;;;;4854434;29;20049;-84
2021/12/23 09:37:15;;;;;;;50.70;13.55;;;10.10;99.90;;;;;;4850773;29;20392;-84
2021/12/23 09:39:43;;;;;;;38.55;11.15;;;10.10;99.90;;;;;;4850886;29;20057;-84
2021/12/23 09:42:13;;;;;;;52.67;11.98;;;10.20;99.90;;;;;;4851217;29;20123;-84
2021/12/23 09:44:40;;;;;;;48.42;15.40;;;10.20;99.90;;;;;;4854690;29;20633;-84
2021/12/23 09:47:07;;;;;;;30.10;11.80;;;10.30;99.90;;;;;;4852848;29;20518;-84
2021/12/23 09:49:34;;;;;;;54.90;12.30;;;10.30;99.90;;;;;;4853155;29;20056;-85
2021/12/23 09:52:04;;;;;;;40.28;9.55;;;10.40;99.90;;;;;;4850548;29;20059;-84
2021/12/23 09:54:31;;;;;;;40.55;9.20;;;10.40;99.90;;;;;;4858109;29;20110;-83
2021/12/23 09:56:58;;;;;;;47.30;11.30;;;10.50;99.90;;;;;;4857156;29;20065;-85
2021/12/23 09:59:27;;;;;;;42.47;9.35;;;10.60;99.90;;;;;;4853050;29;20118;-86
2021/12/23 10:01:55;;;;;;;57.22;12.30;;;10.60;99.90;;;;;;4857536;29;20053;-85
2021/12/23 10:04:22;;;;;;;48.80;13.60;;;10.70;99.90;;;;;;4854918;29;20829;-84
2021/12/23 10:06:51;;;;;;;91.30;24.48;;;10.80;99.90;;;;;;4856299;29;20042;-85
2021/12/23 10:09:40;;;;;;;85.13;19.65;;;10.80;99.90;;;;;;4854009;29;20089;-85
2021/12/23 10:31:59;;;;;;;42.35;7.88;;;11.50;99.90;;;;;;4867045;29;20140;-83
2021/12/23 10:39:35;;;;;;;66.68;11.38;;;11.80;99.90;;;;;;4869920;29;20157;-83
2021/12/23 10:42:15;;;;;;;62.65;10.60;;;11.70;99.90;;;;;;4871808;29;20053;-83
2021/12/23 10:45:11;;;;;;;51.65;7.65;;;11.80;99.90;;;;;;4852606;29;20084;-83
2021/12/23 10:47:53;;;;;;;52.33;8.48;;;11.90;99.90;;;;;;4869323;29;20049;-83
2021/12/23 10:50:34;;;;;;;64.32;7.55;;;11.90;99.90;;;;;;4868857;29;20045;-82
2021/12/23 10:53:09;;;;;;;63.70;7.88;;;11.90;99.90;;;;;;4867424;29;20061;-83
2021/12/23 10:58:23;;;;;;;68.00;11.98;;;12.00;99.90;;;;;;4886354;29;20049;-83
2021/12/23 11:00:54;;;;;;;57.58;8.25;;;12.00;99.90;;;;;;4887920;29;20077;-83
2021/12/23 11:03:31;;;;;;;70.05;8.18;;;12.10;99.90;;;;;;4873342;29;20056;-82
2021/12/23 11:06:15;;;;;;;72.35;8.90;;;12.10;99.90;;;;;;4873275;29;20117;-83
2021/12/23 11:11:38;;;;;;;80.00;8.73;;;12.20;99.90;;;;;;4864452;29;20052;-81
2021/12/23 11:28:09;;;;;;;87.50;9.93;;;12.20;99.90;;;;;;4871925;29;20075;-82
2021/12/23 11:41:33;;;;;;;96.85;11.48;;;12.30;99.90;;;;;;4869432;29;20701;-83
2021/12/23 11:44:03;;;;;;;110.40;9.95;;;12.40;99.90;;;;;;4870655;29;20049;-82
2021/12/23 11:46:51;;;;;;;89.82;9.15;;;12.40;99.90;;;;;;4869475;29;20117;-83
2021/12/23 11:49:19;;;;;;;85.23;13.47;;;12.40;99.90;;;;;;4869670;29;20516;-82
2021/12/23 11:54:23;;;;;;;89.93;11.25;;;12.40;99.90;;;;;;4874732;29;20089;-82
2021/12/23 11:56:54;;;;;;;86.93;11.48;;;12.50;99.90;;;;;;4878184;29;20121;-83
2021/12/23 11:59:21;;;;;;;87.13;12.98;;;12.50;99.90;;;;;;4871670;29;20503;-83
2021/12/23 12:01:53;;;;;;;86.35;11.45;;;12.60;99.90;;;;;;4882487;29;20108;-82
2021/12/23 12:04:37;;;;;;;81.95;9.73;;;12.60;99.90;;;;;;4890545;29;20524;-83
2021/12/23 12:07:19;;;;;;;78.60;9.38;;;12.70;99.90;;;;;;4891148;29;20052;-82
2021/12/23 12:10:01;;;;;;;85.20;10.20;;;12.70;99.90;;;;;;4891006;29;20084;-83
2021/12/23 12:12:31;;;;;;;80.53;11.77;;;12.70;99.90;;;;;;4890122;29;20072;-81
2021/12/23 12:14:59;;;;;;;80.03;9.20;;;12.80;99.90;;;;;;4889108;29;20059;-83
2021/12/23 12:17:26;;;;;;;77.50;8.73;;;12.80;99.90;;;;;;4888550;29;20052;-82
2021/12/23 12:20:09;;;;;;;74.07;8.85;;;12.80;99.90;;;;;;4880962;29;20474;-83
2021/12/23 12:23:08;;;;;;;59.15;8.00;;;12.80;99.90;;;;;;4887661;29;20044;-82
2021/12/23 12:25:41;;;;;;;93.57;9.40;;;12.90;99.90;;;;;;4885450;29;20142;-82
2021/12/23 12:28:08;;;;;;;77.13;9.13;;;12.90;99.90;;;;;;4886513;29;20056;-82
2021/12/23 12:30:41;;;;;;;68.85;8.13;;;12.90;99.90;;;;;;4901402;29;20045;-80
2021/12/23 12:33:25;;;;;;;71.07;8.38;;;12.90;99.90;;;;;;4889845;29;20056;-82
2021/12/23 12:36:05;;;;;;;78.95;7.53;;;12.90;99.90;;;;;;4897616;29;20057;-81
2021/12/23 12:38:43;;;;;;;;;;;12.90;99.90;;;;;;4887828;29;20052;-82
2021/12/23 12:41:16;;;;;;;72.43;7.43;;;12.90;99.90;;;;;;4886098;29;19927;-82
2021/12/23 12:43:46;;;;;;;67.13;7.85;;;12.90;99.90;;;;;;4883684;29;20048;-83
2021/12/23 12:46:22;;;;;;;63.78;6.82;;;12.90;99.90;;;;;;4889165;29;20053;-82
2021/12/23 12:48:56;;;;;;;72.40;6.63;;;12.90;99.90;;;;;;4888572;29;20208;-81
2021/12/23 12:51:35;;;;;;;56.80;7.97;;;12.90;99.90;;;;;;4887292;29;20037;-83
2021/12/23 12:54:08;;;;;;;74.50;7.40;;;12.80;99.90;;;;;;4887525;29;20052;-82
2021/12/23 12:56:42;;;;;;;65.05;7.57;;;12.80;99.90;;;;;;4902072;29;20052;-82
2021/12/23 12:59:10;;;;;;;64.25;7.50;;;12.80;99.90;;;;;;4888378;29;20049;-83
2021/12/23 13:02:17;;;;;;;59.15;7.07;;;12.80;99.90;;;;;;4881044;29;20679;-82
2021/12/23 13:04:50;;;;;;;70.70;8.02;;;12.80;99.90;;;;;;4873965;29;20084;-82
2021/12/23 13:07:36;;;;;;;67.47;9.32;;;12.80;99.90;;;;;;4885459;29;20051;-82
2021/12/23 13:10:14;;;;;;;75.72;9.60;;;12.90;99.90;;;;;;4885957;29;20914;-83
2021/12/23 13:12:49;;;;;;;59.42;7.10;;;12.90;99.90;;;;;;4900796;29;20048;-82
2021/12/23 13:15:18;;;;;;;73.70;11.43;;;12.90;99.90;;;;;;4899896;29;20817;-83
2021/12/23 13:18:05;;;;;;;74.97;11.13;;;13.00;99.90;;;;;;4885043;29;20111;-83
2021/12/23 13:20:35;;;;;;;67.05;9.20;;;13.00;99.90;;;;;;4901254;29;20044;-83
2021/12/23 13:23:06;;;;;;;65.00;7.35;;;13.00;99.90;;;;;;4898748;29;20048;-83
2021/12/23 13:25:44;;;;;;;60.58;8.50;;;13.00;99.90;;;;;;4885210;29;20532;-83
2021/12/23 13:28:22;;;;;;;55.70;6.67;;;13.00;99.90;;;;;;4880853;29;20052;-83
2021/12/23 13:30:50;;;;;;;52.90;6.40;;;13.00;99.90;;;;;;4888774;29;24363;-83
2021/12/23 13:33:17;;;;;;;55.63;6.95;;;13.00;99.90;;;;;;4889908;29;20136;-83
2021/12/23 13:35:44;;;;;;;59.28;6.10;;;13.00;99.90;;;;;;4877488;29;20463;-83
2021/12/23 13:38:27;;;;;;;55.85;5.90;;;13.00;99.90;;;;;;4882481;29;20105;-83
2021/12/23 13:40:54;;;;;;;57.63;5.72;;;13.00;99.90;;;;;;4888802;29;20048;-82
2021/12/23 13:43:31;;;;;;;62.88;7.13;;;13.00;99.90;;;;;;4891429;29;20164;-83
2021/12/23 13:46:08;;;;;;;84.18;15.10;;;12.90;99.90;;;;;;4887489;29;20049;-81
2021/12/23 13:48:54;;;;;;;71.05;10.35;;;12.90;99.90;;;;;;4871185;29;20470;-82
2021/12/23 13:51:24;;;;;;;61.30;11.35;;;12.90;99.90;;;;;;4884225;29;20529;-82
2021/12/23 13:54:12;;;;;;;49.92;8.20;;;12.80;99.90;;;;;;4890027;29;20111;-82
2021/12/23 13:56:46;;;;;;;48.33;10.50;;;12.80;99.90;;;;;;4889063;29;20977;-82
2021/12/23 13:59:17;;;;;;;56.25;5.97;;;12.70;99.90;;;;;;4871331;29;20072;-82
2021/12/23 14:02:09;;;;;;;51.35;7.57;;;12.70;99.90;;;;;;4885542;29;20080;-81
2021/12/23 14:04:43;;;;;;;54.67;7.15;;;12.70;99.90;;;;;;4886430;29;20076;-81
2021/12/23 14:07:12;;;;;;;48.85;6.22;;;12.80;99.90;;;;;;4881520;29;20159;-82
2021/12/23 14:09:50;;;;;;;58.28;7.53;;;12.70;99.90;;;;;;4886917;29;20061;-82
2021/12/23 14:12:21;;;;;;;66.37;8.40;;;12.70;99.90;;;;;;4886406;29;20052;-82
2021/12/23 14:15:01;;;;;;;52.35;5.85;;;12.70;99.90;;;;;;4884221;29;20356;-82
2021/12/23 14:17:38;;;;;;;65.38;8.55;;;12.80;99.90;;;;;;4883746;29;20108;-81
2021/12/23 14:23:13;;;;;;;54.92;7.78;;;12.70;99.90;;;;;;4849227;29;20049;-82
2021/12/23 14:25:53;;;;;;;50.67;6.10;;;12.70;99.90;;;;;;4853176;29;20097;-82
2021/12/23 14:28:30;;;;;;;76.50;7.07;;;12.70;99.90;;;;;;4850596;29;20040;-83
2021/12/23 14:31:31;;;;;;;54.28;7.40;;;12.70;99.90;;;;;;4853670;29;20458;-83
2021/12/23 14:34:05;;;;;;;60.25;6.75;;;12.70;99.90;;;;;;4852306;29;20049;-83
2021/12/23 14:36:56;;;;;;;47.13;6.90;;;12.60;99.90;;;;;;4858177;29;20054;-83
2021/12/23 14:39:36;;;;;;;68.53;8.65;;;12.60;99.90;;;;;;4865208;29;20466;-82
2021/12/23 14:42:14;;;;;;;64.75;8.15;;;12.60;99.90;;;;;;4861477;29;20489;-82
2021/12/23 14:44:42;;;;;;;58.53;6.60;;;12.60;99.90;;;;;;4869712;29;20080;-81
2021/12/23 14:47:29;;;;;;;49.77;6.97;;;12.60;99.90;;;;;;4869036;29;20680;-82
2021/12/23 14:52:42;;;;;;;51.95;6.85;;;12.60;99.90;;;;;;4868927;29;20465;-83
2021/12/23 14:55:09;;;;;;;56.42;9.65;;;12.60;99.90;;;;;;4869299;29;20041;-83
2021/12/23 14:57:38;;;;;;;50.88;9.57;;;12.60;99.90;;;;;;4870565;29;20045;-83
2021/12/23 15:00:05;;;;;;;;;;;12.60;99.90;;;;;;4890854;29;20054;-82
2021/12/23 15:02:32;;;;;;;83.32;10.30;;;12.60;99.90;;;;;;4896028;29;20437;-83
2021/12/23 15:05:14;;;;;;;59.80;8.88;;;12.60;99.90;;;;;;4890739;29;20082;-83
2021/12/23 15:07:53;;;;;;;69.38;11.02;;;12.60;99.90;;;;;;4892311;29;20052;-82
2021/12/23 15:10:48;;;;;;;60.83;10.32;;;12.50;99.90;;;;;;4879321;29;20044;-82
2021/12/23 15:13:21;;;;;;;66.28;10.95;;;12.50;99.90;;;;;;4862441;29;20045;-85
2021/12/23 15:15:59;;;;;;;66.65;9.82;;;12.60;99.90;;;;;;4863312;29;20536;-82
2021/12/23 15:18:41;;;;;;;64.97;12.13;;;12.50;99.90;;;;;;4871522;29;20109;-84
2021/12/23 15:21:18;;;;;;;67.75;9.57;;;12.50;99.90;;;;;;4870791;29;20513;-84
2021/12/23 15:23:48;;;;;;;60.67;7.63;;;12.50;99.90;;;;;;4869772;29;20049;-82
2021/12/23 15:26:34;;;;;;;75.47;8.40;;;12.50;99.90;;;;;;4876141;29;20060;-83
2021/12/23 15:29:18;;;;;;;64.72;9.05;;;12.50;99.90;;;;;;4875898;29;20108;-83
2021/12/23 15:32:16;;;;;;;58.63;8.23;;;12.50;99.90;;;;;;4876399;29;20053;-83
2021/12/23 15:34:48;;;;;;;57.90;8.50;;;12.50;99.90;;;;;;4860286;29;20045;-83
2021/12/23 15:37:18;;;;;;;54.03;6.80;;;12.40;99.90;;;;;;4873336;29;20082;-84
2021/12/23 15:39:45;;;;;;;57.80;7.95;;;12.40;99.90;;;;;;4876331;29;20117;-83
2021/12/23 15:42:13;;;;;;;60.50;7.30;;;12.40;99.90;;;;;;4875193;29;20057;-84
2021/12/23 15:44:44;;;;;;;58.33;10.73;;;12.40;99.90;;;;;;4874280;29;20053;-83
2021/12/23 15:47:14;;;;;;;65.70;9.82;;;12.40;99.90;;;;;;4873797;29;20056;-83
2021/12/23 15:49:41;;;;;;;61.85;8.70;;;12.40;99.90;;;;;;4873991;29;20049;-83
2021/12/23 15:52:11;;;;;;;67.03;9.18;;;12.30;99.90;;;;;;4874604;29;20104;-82
2021/12/23 15:54:40;;;;;;;77.25;9.38;;;12.30;99.90;;;;;;4874027;29;20097;-83
2021/12/23 15:57:07;;;;;;;67.97;9.20;;;12.30;99.90;;;;;;4876462;29;20049;-82
2021/12/23 15:59:35;;;;;;;76.00;8.93;;;12.30;99.90;;;;;;4874133;29;20112;-83
2021/12/23 16:02:04;;;;;;;76.28;10.38;;;12.30;99.90;;;;;;4884104;29;20112;-83
2021/12/23 16:04:34;;;;;;;64.32;9.98;;;12.30;99.90;;;;;;4891948;29;20048;-82
2021/12/23 16:07:19;;;;;;;78.85;10.05;;;12.30;99.90;;;;;;4892389;29;20291;-83
2021/12/23 16:09:55;;;;;;;84.85;8.88;;;12.30;99.90;;;;;;4893956;29;20044;-84
2021/12/23 16:12:31;;;;;;;72.85;8.68;;;12.30;99.90;;;;;;4891948;29;20056;-82
2021/12/23 16:14:59;;;;;;;94.30;24.38;;;12.30;99.90;;;;;;4893504;29;20601;-83
2021/12/23 16:17:29;;;;;;;69.45;9.68;;;12.30;99.90;;;;;;4891284;29;20051;-84
2021/12/23 16:19:58;;;;;;;79.72;11.15;;;12.30;99.90;;;;;;4891408;29;20424;-82
2021/12/23 16:22:27;;;;;;;92.20;9.93;;;12.30;99.90;;;;;;4893391;29;20064;-82
2021/12/23 16:25:19;;;;;;;86.82;11.55;;;12.20;99.90;;;;;;4888382;29;20068;-83
2021/12/23 16:27:46;;;;;;;85.97;10.93;;;12.20;99.90;;;;;;4888298;29;20048;-83
2021/12/23 16:30:22;;;;;;;131.07;24.65;;;12.20;99.90;;;;;;4889229;29;20105;-82
2021/12/23 16:33:08;;;;;;;107.65;19.23;;;12.20;99.90;;;;;;4888956;29;20517;-83
2021/12/23 16:35:39;;;;;;;108.75;16.00;;;12.20;99.90;;;;;;4891994;29;20528;-82
2021/12/23 16:38:07;;;;;;;122.90;20.27;;;12.20;99.90;;;;;;4891721;29;20040;-84
2021/12/23 16:40:37;;;;;;;107.00;17.88;;;12.10;99.90;;;;;;4888511;29;21062;-80
2021/12/23 16:43:04;;;;;;;133.48;20.92;;;12.10;99.90;;;;;;4874094;29;20080;-81
2021/12/23 16:45:33;;;;;;;111.18;17.75;;;12.10;99.90;;;;;;4889818;29;20052;-81
2021/12/23 16:48:00;;;;;;;116.22;16.02;;;12.10;99.90;;;;;;4893006;29;20051;-82
2021/12/23 16:50:28;;;;;;;96.35;16.73;;;12.10;99.90;;;;;;4893019;29;20068;-82
2021/12/23 16:53:00;;;;;;;120.03;14.25;;;12.10;99.90;;;;;;4890434;29;20517;-82
2021/12/23 16:58:04;;;;;;;106.95;16.33;;;12.00;99.90;;;;;;4884601;29;20089;-81
2021/12/23 17:00:31;;;;;;;108.22;19.90;;;12.00;99.90;;;;;;4887769;29;20045;-81
2021/12/23 17:02:58;;;;;;;110.50;17.38;;;12.00;99.90;;;;;;4873522;29;20244;-81
2021/12/23 17:05:28;;;;;;;117.00;29.88;;;12.00;99.90;;;;;;4886125;29;20461;-81
2021/12/23 17:07:55;;;;;;;94.85;15.27;;;12.00;99.90;;;;;;4888712;29;20109;-82
2021/12/23 17:10:27;;;;;;;103.78;14.82;;;12.00;99.90;;;;;;4889451;29;20106;-80
2021/12/23 17:12:55;;;;;;;145.52;15.13;;;12.00;99.90;;;;;;4887131;29;20184;-80
2021/12/23 17:15:24;;;;;;;;;;;11.90;99.90;;;;;;4890349;29;20056;-82
2021/12/23 17:17:59;;;;;;;159.23;28.27;;;11.90;99.90;;;;;;4888813;29;19927;-81
2021/12/23 17:21:47;;;;;;;138.45;17.60;;;11.90;99.90;;;;;;4885917;29;20489;-82
2021/12/23 17:23:22;;;;;;;239.57;17.67;;;11.90;99.90;;;;;;4888761;29;20125;-81
2021/12/23 17:25:51;;;;;;;252.18;21.48;;;11.80;99.90;;;;;;4891522;29;20588;-81
2021/12/23 17:28:19;;;;;;;200.18;18.42;;;11.80;99.90;;;;;;4887834;29;20045;-80
2021/12/23 17:30:48;;;;;;;234.40;33.78;;;11.80;99.90;;;;;;4884080;29;20063;-81
2021/12/23 17:33:16;;;;;;;194.48;19.40;;;11.80;99.90;;;;;;4885518;29;20067;-80
2021/12/23 17:35:46;;;;;;;236.40;30.10;;;11.80;99.90;;;;;;4879257;29;20723;-81
2021/12/23 17:38:17;;;;;;;387.02;106.00;;;11.80;99.90;;;;;;4877665;29;20604;-81
2021/12/23 17:40:45;;;;;;;376.17;196.95;;;11.80;99.90;;;;;;4883920;29;20060;-81
2021/12/23 17:43:15;;;;;;;186.82;52.05;;;11.70;99.90;;;;;;4888037;29;20048;-81
2021/12/23 17:45:45;;;;;;;178.80;30.48;;;11.70;99.90;;;;;;4880677;29;20060;-82
2021/12/23 17:48:12;;;;;;;178.30;30.85;;;11.70;99.90;;;;;;4886220;29;20052;-82
2021/12/23 17:50:40;;;;;;;132.82;17.80;;;11.70;99.90;;;;;;4881135;29;20125;-82
2021/12/23 17:53:10;;;;;;;173.33;18.33;;;11.70;99.90;;;;;;4880252;29;20057;-82
2021/12/23 17:55:39;;;;;;;113.65;14.95;;;11.70;99.90;;;;;;4882292;29;20048;-81
2021/12/23 17:58:12;;;;;;;149.45;21.77;;;11.70;99.90;;;;;;4888392;29;20502;-82
2021/12/23 18:00:40;;;;;;;229.90;22.15;;;11.70;99.90;;;;;;4871309;29;20129;-82
2021/12/23 18:03:08;;;;;;;216.65;21.98;;;11.60;99.90;;;;;;4881507;29;20482;-82
2021/12/23 18:05:37;;;;;;;112.93;16.00;;;11.60;99.90;;;;;;4884229;29;20085;-83
2021/12/23 18:08:04;;;;;;;176.57;18.67;;;11.60;99.90;;;;;;4883505;29;20100;-81
2021/12/23 18:10:32;;;;;;;168.35;14.50;;;11.60;99.90;;;;;;4893116;29;20052;-82
2021/12/23 18:12:59;;;;;;;216.35;14.40;;;11.60;99.90;;;;;;4887273;29;20484;-82
2021/12/23 18:15:26;;;;;;;280.10;14.35;;;11.60;99.90;;;;;;4894662;29;20127;-82
2021/12/23 18:17:52;;;;;;;258.52;19.35;;;11.60;99.90;;;;;;4890046;29;20060;-82
2021/12/23 18:20:19;;;;;;;211.77;19.52;;;11.60;99.90;;;;;;4889939;29;20517;-83
2021/12/23 18:22:46;;;;;;;228.35;20.00;;;11.50;99.90;;;;;;4879351;29;20057;-83
2021/12/23 18:25:13;;;;;;;366.77;32.08;;;11.50;99.90;;;;;;4888746;29;20056;-79
2021/12/23 18:27:40;;;;;;;238.00;19.42;;;11.50;99.90;;;;;;4886640;29;20521;-82
2021/12/23 18:30:13;;;;;;;220.10;13.90;;;11.50;99.90;;;;;;4885921;29;20517;-82
2021/12/23 18:32:41;;;;;;;173.48;14.98;;;11.40;99.90;;;;;;4885057;29;20060;-81
2021/12/23 18:35:09;;;;;;;230.50;14.88;;;11.50;99.90;;;;;;4883847;29;20403;-81
2021/12/23 18:37:41;;;;;;;177.02;15.65;;;11.40;99.90;;;;;;4884358;29;20395;-81
2021/12/23 18:40:09;;;;;;;123.22;10.93;;;11.40;99.90;;;;;;4886946;29;20564;-82
2021/12/23 18:42:40;;;;;;;165.68;17.08;;;11.40;99.90;;;;;;4883851;29;20128;-83
2021/12/23 18:45:09;;;;;;;152.70;15.63;;;11.40;99.90;;;;;;4880923;29;20514;-81
2021/12/23 18:47:36;;;;;;;188.02;16.08;;;11.40;99.90;;;;;;4875187;29;20072;-81
2021/12/23 18:50:07;;;;;;;190.43;18.10;;;11.40;99.90;;;;;;4889053;29;21022;-81
2021/12/23 18:52:34;;;;;;;141.60;21.15;;;11.40;99.90;;;;;;4884755;29;20052;-80
2021/12/23 18:55:01;;;;;;;213.30;23.85;;;11.40;99.90;;;;;;4882859;29;20053;-81
2021/12/23 18:57:28;;;;;;;205.65;27.23;;;11.50;99.90;;;;;;4888000;29;20048;-81
2021/12/23 18:59:55;;;;;;;209.93;31.90;;;11.40;99.90;;;;;;4882521;29;20052;-81
2021/12/23 19:02:59;;;;;;;260.23;41.03;;;11.40;99.90;;;;;;4876610;29;20105;-82
2021/12/23 19:05:35;;;;;;;246.77;31.08;;;11.40;99.90;;;;;;4879768;29;20116;-82
2021/12/23 19:07:57;;;;;;;209.60;23.65;;;11.40;99.90;;;;;;4883625;29;20100;-83
2021/12/23 19:10:25;;;;;;;213.20;17.98;;;11.40;99.90;;;;;;4887702;29;20055;-80
2021/12/23 19:12:52;;;;;;;119.97;14.27;;;11.40;99.90;;;;;;4890749;29;20755;-82
2021/12/23 19:15:20;;;;;;;178.80;20.45;;;11.40;99.90;;;;;;4889310;29;20048;-82
2021/12/23 19:17:50;;;;;;;124.95;12.52;;;11.30;99.90;;;;;;4890689;29;20352;-81
2021/12/23 19:20:19;;;;;;;181.65;16.10;;;11.30;99.90;;;;;;4873254;29;20109;-81
2021/12/23 19:22:48;;;;;;;156.93;15.30;;;11.30;99.90;;;;;;4888406;29;20060;-81
2021/12/23 19:25:15;;;;;;;192.73;16.13;;;11.30;99.90;;;;;;4888487;29;20855;-81
2021/12/23 19:27:44;;;;;;;186.80;15.02;;;11.30;99.90;;;;;;4886665;29;20060;-82
2021/12/23 19:30:12;;;;;;;154.73;13.82;;;11.30;99.90;;;;;;4890930;29;20053;-82
2021/12/23 19:32:40;;;;;;;198.45;15.27;;;11.30;99.90;;;;;;4888337;29;20049;-82
2021/12/23 19:35:08;;;;;;;306.85;18.15;;;11.30;99.90;;;;;;4890378;29;20044;-84
2021/12/23 19:37:36;;;;;;;284.57;16.80;;;11.30;99.90;;;;;;4893636;29;20502;-83
2021/12/23 19:40:05;;;;;;;231.02;13.75;;;11.30;99.90;;;;;;4891374;29;20056;-84
2021/12/23 19:42:32;;;;;;;264.55;17.08;;;11.30;99.90;;;;;;4889297;29;20140;-84
2021/12/23 19:45:00;;;;;;;236.25;16.55;;;11.30;99.90;;;;;;4899520;29;20067;-83
2021/12/23 19:47:27;;;;;;;325.45;19.27;;;11.30;99.90;;;;;;4891938;29;20120;-84
2021/12/23 19:49:55;;;;;;;270.13;19.42;;;11.30;99.90;;;;;;4889736;29;20054;-84
2021/12/23 19:52:24;;;;;;;219.60;19.77;;;11.30;99.90;;;;;;4891599;29;20044;-84
2021/12/23 19:54:51;;;;;;;211.57;15.38;;;11.30;99.90;;;;;;4899091;29;20088;-84
2021/12/23 19:57:18;;;;;;;168.70;9.50;;;11.30;99.90;;;;;;4893375;29;20048;-83
2021/12/23 19:59:45;;;;;;;233.82;11.77;;;11.30;99.90;;;;;;4892857;29;20056;-84
2021/12/23 20:02:12;;;;;;;233.82;12.25;;;11.30;99.90;;;;;;4897888;29;20056;-84
2021/12/23 20:04:40;;;;;;;383.90;13.93;;;11.20;99.90;;;;;;4884386;29;20488;-84
2021/12/23 20:07:08;;;;;;;239.82;12.88;;;11.20;99.90;;;;;;4896432;29;20043;-82
2021/12/23 20:09:35;;;;;;;274.73;13.40;;;11.20;99.90;;;;;;4908046;29;20044;-84
2021/12/23 20:12:03;;;;;;;283.25;13.32;;;11.20;99.90;;;;;;4903185;29;20056;-82
2021/12/23 20:14:30;;;;;;;291.05;11.82;;;11.20;99.90;;;;;;4892970;29;20134;-82
2021/12/23 20:16:57;;;;;;;273.13;12.23;;;11.10;99.90;;;;;;4890028;29;20120;-83
2021/12/23 20:19:24;;;;;;;309.67;13.77;;;11.10;99.90;;;;;;4891672;29;20045;-83
2021/12/23 20:21:51;;;;;;;336.80;22.13;;;11.10;99.90;;;;;;4898852;29;20132;-84
2021/12/23 20:24:18;;;;;;;312.02;24.50;;;11.10;99.90;;;;;;4892040;29;20051;-84
2021/12/23 20:26:46;;;;;;;133.57;13.48;;;11.10;99.90;;;;;;4891695;29;20060;-83
2021/12/23 20:29:13;;;;;;;125.80;10.83;;;11.00;99.90;;;;;;4900387;29;20051;-83
2021/12/23 20:31:41;;;;;;;172.73;18.25;;;11.10;99.90;;;;;;4895248;29;20289;-82
2021/12/23 20:34:08;;;;;;;104.97;14.38;;;11.00;99.90;;;;;;4891358;29;20052;-82
2021/12/23 20:36:36;;;;;;;261.02;50.03;;;11.00;99.90;;;;;;4878921;29;20051;-81
2021/12/23 20:39:07;;;;;;;453.77;71.70;;;11.00;99.90;;;;;;4867421;29;20048;-81
2021/12/23 20:41:36;;;;;;;328.77;57.08;;;11.00;99.90;;;;;;4887370;29;20056;-82
2021/12/23 20:44:05;;;;;;;107.03;21.00;;;11.00;99.90;;;;;;4890149;29;20104;-81
2021/12/23 20:46:34;;;;;;;113.13;23.08;;;10.90;99.90;;;;;;4884096;29;20040;-83
2021/12/23 20:49:01;;;;;;;106.68;19.30;;;10.90;99.90;;;;;;4891115;29;20417;-83
2021/12/23 20:51:37;;;;;;;64.68;12.45;;;10.90;99.90;;;;;;4887848;29;20075;-83
2021/12/23 20:54:09;;;;;;;91.10;13.70;;;10.90;99.90;;;;;;4896845;29;20072;-81
2021/12/23 20:56:36;;;;;;;141.13;16.92;;;10.90;99.90;;;;;;4876595;29;20510;-82
2021/12/23 20:59:04;;;;;;;125.03;16.10;;;10.90;99.90;;;;;;4889321;29;20184;-81
2021/12/23 21:01:32;;;;;;;138.98;18.35;;;10.90;99.90;;;;;;4885749;29;20044;-83